Cunot, Indiana
Current Conditions -  °F | °C
As of 5:15 PM on Saturday 25 Oct 2014 (Local Time) from K4I7 Reporting Station
Clear Clear  
Wind Chill: 75°   Ceiling: Unl
Heat Index: 75°   Visibility: 10mi
Dew Point: 45°   Wind: 8mph
Humidity: 34%   Direction: 270°W
Pressure: 29.95"   Gusts: NA
Location:  39.5431°N, 86.7779°W
Report Text: K4I7 252115Z AUTO 27007KT 10SM CLR 24/07 A2995 RMK AO2
Loading
Personal Weather Stations






























Interactive Weather Map
Tropical Storm Tracking
New forecast layout! Learn more

10-Day Weather Forecast

Advertisements
Track Severe Weather on mobile